sensor_id;sensor_type;location;lat;lon;timestamp;temperature;humidity
22813;DHT22;11573;51.334;3.244;2022-09-12T00:01:51;14.60;99.90
22813;DHT22;11573;51.334;3.244;2022-09-12T00:04:18;14.60;99.90
22813;DHT22;11573;51.334;3.244;2022-09-12T00:06:45;14.70;99.90
22813;DHT22;11573;51.334;3.244;2022-09-12T00:09:13;14.70;99.90
22813;DHT22;11573;51.334;3.244;2022-09-12T00:11:42;14.70;99.90
22813;DHT22;11573;51.334;3.244;2022-09-12T00:14:11;14.60;99.90
22813;DHT22;11573;51.334;3.244;2022-09-12T00:16:39;14.60;99.90
22813;DHT22;11573;51.334;3.244;2022-09-12T00:19:07;14.60;99.90
22813;DHT22;11573;51.334;3.244;2022-09-12T00:21:36;14.60;99.90
22813;DHT22;11573;51.334;3.244;2022-09-12T00:24:04;14.60;99.90
22813;DHT22;11573;51.334;3.244;2022-09-12T00:26:31;14.60;99.90
22813;DHT22;11573;51.334;3.244;2022-09-12T00:28:58;14.60;99.90
22813;DHT22;11573;51.334;3.244;2022-09-12T00:31:26;14.60;99.90
22813;DHT22;11573;51.334;3.244;2022-09-12T00:33:56;14.60;99.90
22813;DHT22;11573;51.334;3.244;2022-09-12T00:36:24;14.60;99.90
22813;DHT22;11573;51.334;3.244;2022-09-12T00:38:53;14.50;99.90
22813;DHT22;11573;51.334;3.244;2022-09-12T00:49:50;14.60;99.90
22813;DHT22;11573;51.334;3.244;2022-09-12T00:52:41;14.60;99.90
22813;DHT22;11573;51.334;3.244;2022-09-12T00:55:20;14.60;99.90
22813;DHT22;11573;51.334;3.244;2022-09-12T00:58:01;14.60;99.90
22813;DHT22;11573;51.334;3.244;2022-09-12T01:00:29;14.60;99.90
22813;DHT22;11573;51.334;3.244;2022-09-12T01:03:00;14.70;99.90
22813;DHT22;11573;51.334;3.244;2022-09-12T01:05:28;14.70;99.90
22813;DHT22;11573;51.334;3.244;2022-09-12T01:07:56;14.70;99.90
22813;DHT22;11573;51.334;3.244;2022-09-12T01:10:26;14.70;99.90
22813;DHT22;11573;51.334;3.244;2022-09-12T01:12:52;14.70;99.90
22813;DHT22;11573;51.334;3.244;2022-09-12T01:15:19;14.70;99.90
22813;DHT22;11573;51.334;3.244;2022-09-12T01:18:15;14.70;99.90
22813;DHT22;11573;51.334;3.244;2022-09-12T01:22:01;14.70;99.90
22813;DHT22;11573;51.334;3.244;2022-09-12T01:24:11;14.70;99.90
22813;DHT22;11573;51.334;3.244;2022-09-12T01:29:53;14.70;99.90
22813;DHT22;11573;51.334;3.244;2022-09-12T01:35:18;14.70;99.90
22813;DHT22;11573;51.334;3.244;2022-09-12T01:40:42;14.80;99.90
22813;DHT22;11573;51.334;3.244;2022-09-12T01:45:55;14.80;99.90
22813;DHT22;11573;51.334;3.244;2022-09-12T01:48:29;14.70;99.90
22813;DHT22;11573;51.334;3.244;2022-09-12T01:53:42;14.70;99.90
22813;DHT22;11573;51.334;3.244;2022-09-12T01:56:15;14.60;99.90
22813;DHT22;11573;51.334;3.244;2022-09-12T01:58:53;14.60;99.90
22813;DHT22;11573;51.334;3.244;2022-09-12T02:01:28;14.60;99.90
22813;DHT22;11573;51.334;3.244;2022-09-12T02:04:14;14.50;99.90
22813;DHT22;11573;51.334;3.244;2022-09-12T02:06:53;14.50;99.90
22813;DHT22;11573;51.334;3.244;2022-09-12T02:12:12;14.50;99.90
22813;DHT22;11573;51.334;3.244;2022-09-12T02:14:45;14.50;99.90
22813;DHT22;11573;51.334;3.244;2022-09-12T02:17:21;14.50;99.90
22813;DHT22;11573;51.334;3.244;2022-09-12T02:19:54;14.50;99.90
22813;DHT22;11573;51.334;3.244;2022-09-12T02:22:25;14.50;99.90
22813;DHT22;11573;51.334;3.244;2022-09-12T02:24:56;14.40;99.90
22813;DHT22;11573;51.334;3.244;2022-09-12T02:30:07;14.40;99.90
22813;DHT22;11573;51.334;3.244;2022-09-12T02:32:40;14.40;99.90
22813;DHT22;11573;51.334;3.244;2022-09-12T02:35:15;14.40;99.90
22813;DHT22;11573;51.334;3.244;2022-09-12T02:37:59;14.40;99.90
22813;DHT22;11573;51.334;3.244;2022-09-12T02:40:29;14.40;99.90
22813;DHT22;11573;51.334;3.244;2022-09-12T02:42:56;14.30;99.90
22813;DHT22;11573;51.334;3.244;2022-09-12T02:45:23;14.30;99.90
22813;DHT22;11573;51.334;3.244;2022-09-12T02:47:59;14.30;99.90
22813;DHT22;11573;51.334;3.244;2022-09-12T02:50:27;14.30;99.90
22813;DHT22;11573;51.334;3.244;2022-09-12T02:52:55;14.30;99.90
22813;DHT22;11573;51.334;3.244;2022-09-12T02:55:27;14.20;99.90
22813;DHT22;11573;51.334;3.244;2022-09-12T02:57:56;14.20;99.90
22813;DHT22;11573;51.334;3.244;2022-09-12T03:00:23;14.10;99.90
22813;DHT22;11573;51.334;3.244;2022-09-12T03:09:18;14.10;99.90
22813;DHT22;11573;51.334;3.244;2022-09-12T03:14:42;14.00;99.90
22813;DHT22;11573;51.334;3.244;2022-09-12T03:23:03;13.90;99.90
22813;DHT22;11573;51.334;3.244;2022-09-12T03:25:36;13.90;99.90
22813;DHT22;11573;51.334;3.244;2022-09-12T03:28:10;13.90;99.90
22813;DHT22;11573;51.334;3.244;2022-09-12T03:30:43;14.00;99.90
22813;DHT22;11573;51.334;3.244;2022-09-12T03:33:12;14.00;99.90
22813;DHT22;11573;51.334;3.244;2022-09-12T03:35:39;14.00;99.90
22813;DHT22;11573;51.334;3.244;2022-09-12T03:38:06;14.00;99.90
22813;DHT22;11573;51.334;3.244;2022-09-12T03:40:34;14.00;99.90
22813;DHT22;11573;51.334;3.244;2022-09-12T03:43:03;13.90;99.90
22813;DHT22;11573;51.334;3.244;2022-09-12T03:45:30;13.90;99.90
22813;DHT22;11573;51.334;3.244;2022-09-12T03:47:57;13.90;99.90
22813;DHT22;11573;51.334;3.244;2022-09-12T03:50:24;13.90;99.90
22813;DHT22;11573;51.334;3.244;2022-09-12T03:52:51;13.80;99.90
22813;DHT22;11573;51.334;3.244;2022-09-12T03:55:18;13.90;99.90
22813;DHT22;11573;51.334;3.244;2022-09-12T03:57:45;13.80;99.90
22813;DHT22;11573;51.334;3.244;2022-09-12T04:00:12;13.80;99.90
22813;DHT22;11573;51.334;3.244;2022-09-12T04:02:45;13.80;99.90
22813;DHT22;11573;51.334;3.244;2022-09-12T04:05:12;13.80;99.90
22813;DHT22;11573;51.334;3.244;2022-09-12T04:07:39;13.90;99.90
22813;DHT22;11573;51.334;3.244;2022-09-12T04:10:06;14.00;99.90
22813;DHT22;11573;51.334;3.244;2022-09-12T04:12:35;13.90;99.90
22813;DHT22;11573;51.334;3.244;2022-09-12T04:15:02;13.90;99.90
22813;DHT22;11573;51.334;3.244;2022-09-12T04:17:29;13.90;99.90
22813;DHT22;11573;51.334;3.244;2022-09-12T04:19:56;13.90;99.90
22813;DHT22;11573;51.334;3.244;2022-09-12T04:22:23;13.80;99.90
22813;DHT22;11573;51.334;3.244;2022-09-12T04:24:50;13.80;99.90
22813;DHT22;11573;51.334;3.244;2022-09-12T04:27:17;13.70;99.90
22813;DHT22;11573;51.334;3.244;2022-09-12T04:29:43;13.70;99.90
22813;DHT22;11573;51.334;3.244;2022-09-12T04:32:10;13.70;99.90
22813;DHT22;11573;51.334;3.244;2022-09-12T04:34:37;13.60;99.90
22813;DHT22;11573;51.334;3.244;2022-09-12T04:37:04;13.60;99.90
22813;DHT22;11573;51.334;3.244;2022-09-12T04:39:31;13.60;99.90
22813;DHT22;11573;51.334;3.244;2022-09-12T04:41:58;13.60;99.90
22813;DHT22;11573;51.334;3.244;2022-09-12T04:44:25;13.60;99.90
22813;DHT22;11573;51.334;3.244;2022-09-12T04:47:06;13.60;99.90
22813;DHT22;11573;51.334;3.244;2022-09-12T04:49:34;13.70;99.90
22813;DHT22;11573;51.334;3.244;2022-09-12T04:52:01;13.70;99.90
22813;DHT22;11573;51.334;3.244;2022-09-12T04:54:28;13.70;99.90
22813;DHT22;11573;51.334;3.244;2022-09-12T04:56:54;13.70;99.90
22813;DHT22;11573;51.334;3.244;2022-09-12T04:59:22;13.60;99.90
22813;DHT22;11573;51.334;3.244;2022-09-12T05:01:49;13.60;99.90
22813;DHT22;11573;51.334;3.244;2022-09-12T05:04:16;13.70;99.90
22813;DHT22;11573;51.334;3.244;2022-09-12T05:06:43;13.70;99.90
22813;DHT22;11573;51.334;3.244;2022-09-12T05:09:13;13.70;99.90
22813;DHT22;11573;51.334;3.244;2022-09-12T05:11:41;13.70;99.90
22813;DHT22;11573;51.334;3.244;2022-09-12T05:14:29;13.80;99.90
22813;DHT22;11573;51.334;3.244;2022-09-12T05:16:58;13.70;99.90
22813;DHT22;11573;51.334;3.244;2022-09-12T05:19:28;13.70;99.90
22813;DHT22;11573;51.334;3.244;2022-09-12T05:21:56;13.70;99.90
22813;DHT22;11573;51.334;3.244;2022-09-12T05:24:23;13.60;99.90
22813;DHT22;11573;51.334;3.244;2022-09-12T05:26:57;13.60;99.90
22813;DHT22;11573;51.334;3.244;2022-09-12T05:29:24;13.60;99.90
22813;DHT22;11573;51.334;3.244;2022-09-12T05:31:51;13.60;99.90
22813;DHT22;11573;51.334;3.244;2022-09-12T05:34:19;13.60;99.90
22813;DHT22;11573;51.334;3.244;2022-09-12T05:36:47;13.60;99.90
22813;DHT22;11573;51.334;3.244;2022-09-12T05:39:14;13.70;99.90
22813;DHT22;11573;51.334;3.244;2022-09-12T05:41:41;13.70;99.90
22813;DHT22;11573;51.334;3.244;2022-09-12T05:44:10;13.80;99.90
22813;DHT22;11573;51.334;3.244;2022-09-12T05:46:40;13.90;99.90
22813;DHT22;11573;51.334;3.244;2022-09-12T05:49:09;13.90;99.90
22813;DHT22;11573;51.334;3.244;2022-09-12T05:51:39;13.90;99.90
22813;DHT22;11573;51.334;3.244;2022-09-12T05:54:09;13.90;99.90
22813;DHT22;11573;51.334;3.244;2022-09-12T05:56:39;13.90;99.90
22813;DHT22;11573;51.334;3.244;2022-09-12T05:59:11;13.90;99.90
22813;DHT22;11573;51.334;3.244;2022-09-12T06:01:39;13.90;99.90
22813;DHT22;11573;51.334;3.244;2022-09-12T06:04:06;14.00;99.90
22813;DHT22;11573;51.334;3.244;2022-09-12T06:06:44;14.00;99.90
22813;DHT22;11573;51.334;3.244;2022-09-12T06:09:13;14.20;99.90
22813;DHT22;11573;51.334;3.244;2022-09-12T06:11:40;14.30;99.90
22813;DHT22;11573;51.334;3.244;2022-09-12T06:14:09;14.40;99.90
22813;DHT22;11573;51.334;3.244;2022-09-12T06:16:38;14.40;99.90
22813;DHT22;11573;51.334;3.244;2022-09-12T06:19:07;14.50;99.90
22813;DHT22;11573;51.334;3.244;2022-09-12T06:21:38;14.60;99.90
22813;DHT22;11573;51.334;3.244;2022-09-12T06:24:05;14.80;99.90
22813;DHT22;11573;51.334;3.244;2022-09-12T06:26:34;14.90;99.90
22813;DHT22;11573;51.334;3.244;2022-09-12T06:29:10;15.10;99.90
22813;DHT22;11573;51.334;3.244;2022-09-12T06:31:39;15.10;99.90
22813;DHT22;11573;51.334;3.244;2022-09-12T06:34:09;15.10;99.90
22813;DHT22;11573;51.334;3.244;2022-09-12T06:36:39;15.10;99.90
22813;DHT22;11573;51.334;3.244;2022-09-12T06:39:09;15.20;99.90
22813;DHT22;11573;51.334;3.244;2022-09-12T06:41:36;15.40;99.90
22813;DHT22;11573;51.334;3.244;2022-09-12T06:44:17;15.50;99.90
22813;DHT22;11573;51.334;3.244;2022-09-12T06:46:45;15.80;99.90
22813;DHT22;11573;51.334;3.244;2022-09-12T06:49:12;15.90;99.90
22813;DHT22;11573;51.334;3.244;2022-09-12T06:51:40;16.00;99.90
22813;DHT22;11573;51.334;3.244;2022-09-12T06:54:14;16.10;99.90
22813;DHT22;11573;51.334;3.244;2022-09-12T06:56:43;16.40;99.90
22813;DHT22;11573;51.334;3.244;2022-09-12T06:59:10;16.50;99.90
22813;DHT22;11573;51.334;3.244;2022-09-12T07:01:37;16.80;99.90
22813;DHT22;11573;51.334;3.244;2022-09-12T07:04:05;16.90;99.90
22813;DHT22;11573;51.334;3.244;2022-09-12T07:06:51;16.90;99.90
22813;DHT22;11573;51.334;3.244;2022-09-12T07:09:17;17.00;99.90
22813;DHT22;11573;51.334;3.244;2022-09-12T07:11:45;17.10;99.90
22813;DHT22;11573;51.334;3.244;2022-09-12T07:14:13;17.20;99.90
22813;DHT22;11573;51.334;3.244;2022-09-12T07:16:40;17.20;99.90
22813;DHT22;11573;51.334;3.244;2022-09-12T07:19:08;17.10;99.90
22813;DHT22;11573;51.334;3.244;2022-09-12T07:21:36;17.20;99.90
22813;DHT22;11573;51.334;3.244;2022-09-12T07:24:07;17.10;99.90
22813;DHT22;11573;51.334;3.244;2022-09-12T07:26:35;17.20;99.90
22813;DHT22;11573;51.334;3.244;2022-09-12T07:29:02;17.30;99.90
22813;DHT22;11573;51.334;3.244;2022-09-12T07:31:50;17.40;99.90
22813;DHT22;11573;51.334;3.244;2022-09-12T07:34:17;17.60;99.90
22813;DHT22;11573;51.334;3.244;2022-09-12T07:36:44;17.70;99.90
22813;DHT22;11573;51.334;3.244;2022-09-12T07:39:11;17.60;99.90
22813;DHT22;11573;51.334;3.244;2022-09-12T07:41:38;17.70;99.90
22813;DHT22;11573;51.334;3.244;2022-09-12T07:44:05;17.90;99.90
22813;DHT22;11573;51.334;3.244;2022-09-12T07:46:33;17.90;99.90
22813;DHT22;11573;51.334;3.244;2022-09-12T07:49:02;18.10;99.90
22813;DHT22;11573;51.334;3.244;2022-09-12T07:51:29;18.10;99.90
22813;DHT22;11573;51.334;3.244;2022-09-12T07:53:56;18.30;99.90
22813;DHT22;11573;51.334;3.244;2022-09-12T07:56:26;18.50;99.90
22813;DHT22;11573;51.334;3.244;2022-09-12T07:58:58;18.60;99.90
22813;DHT22;11573;51.334;3.244;2022-09-12T08:01:25;18.70;99.90
22813;DHT22;11573;51.334;3.244;2022-09-12T08:03:57;18.70;99.90
22813;DHT22;11573;51.334;3.244;2022-09-12T08:06:25;18.90;99.90
22813;DHT22;11573;51.334;3.244;2022-09-12T08:08:57;18.90;99.90
22813;DHT22;11573;51.334;3.244;2022-09-12T08:11:25;19.00;99.90
22813;DHT22;11573;51.334;3.244;2022-09-12T08:13:54;19.10;99.90
22813;DHT22;11573;51.334;3.244;2022-09-12T08:16:25;19.20;99.90
22813;DHT22;11573;51.334;3.244;2022-09-12T08:18:53;19.20;99.90
22813;DHT22;11573;51.334;3.244;2022-09-12T08:21:23;19.30;99.90
22813;DHT22;11573;51.334;3.244;2022-09-12T08:23:52;19.30;99.90
22813;DHT22;11573;51.334;3.244;2022-09-12T08:26:20;19.30;99.90
22813;DHT22;11573;51.334;3.244;2022-09-12T08:28:47;19.40;99.90
22813;DHT22;11573;51.334;3.244;2022-09-12T08:31:17;19.40;99.90
22813;DHT22;11573;51.334;3.244;2022-09-12T08:33:44;19.50;99.90
22813;DHT22;11573;51.334;3.244;2022-09-12T08:36:17;19.60;99.90
22813;DHT22;11573;51.334;3.244;2022-09-12T08:38:47;19.60;99.90
22813;DHT22;11573;51.334;3.244;2022-09-12T08:44:04;19.80;99.90
22813;DHT22;11573;51.334;3.244;2022-09-12T08:49:33;19.70;99.90
22813;DHT22;11573;51.334;3.244;2022-09-12T08:58:17;19.90;99.90
22813;DHT22;11573;51.334;3.244;2022-09-12T09:09:36;20.30;99.90
22813;DHT22;11573;51.334;3.244;2022-09-12T09:12:25;20.40;99.90
22813;DHT22;11573;51.334;3.244;2022-09-12T09:18:05;20.80;99.90
22813;DHT22;11573;51.334;3.244;2022-09-12T09:20:49;20.80;99.90
22813;DHT22;11573;51.334;3.244;2022-09-12T09:23:30;21.00;99.90
22813;DHT22;11573;51.334;3.244;2022-09-12T09:26:25;21.00;99.90
22813;DHT22;11573;51.334;3.244;2022-09-12T09:29:05;21.20;99.90
22813;DHT22;11573;51.334;3.244;2022-09-12T09:31:38;21.10;99.90
22813;DHT22;11573;51.334;3.244;2022-09-12T09:34:17;21.00;99.90
22813;DHT22;11573;51.334;3.244;2022-09-12T09:40:01;21.00;99.90
22813;DHT22;11573;51.334;3.244;2022-09-12T09:45:14;21.40;99.90
22813;DHT22;11573;51.334;3.244;2022-09-12T09:48:18;21.40;99.90
22813;DHT22;11573;51.334;3.244;2022-09-12T09:50:47;21.30;99.90
22813;DHT22;11573;51.334;3.244;2022-09-12T09:53:42;21.30;99.90
22813;DHT22;11573;51.334;3.244;2022-09-12T09:56:35;21.40;99.90
22813;DHT22;11573;51.334;3.244;2022-09-12T10:01:52;21.80;99.90
22813;DHT22;11573;51.334;3.244;2022-09-12T10:04:29;22.00;99.90
22813;DHT22;11573;51.334;3.244;2022-09-12T10:06:58;22.10;99.90
22813;DHT22;11573;51.334;3.244;2022-09-12T10:09:34;22.20;99.90
22813;DHT22;11573;51.334;3.244;2022-09-12T10:12:21;22.30;99.90
22813;DHT22;11573;51.334;3.244;2022-09-12T10:14:59;22.40;99.90
22813;DHT22;11573;51.334;3.244;2022-09-12T10:17:31;22.70;99.90
22813;DHT22;11573;51.334;3.244;2022-09-12T10:20:36;22.80;99.90
22813;DHT22;11573;51.334;3.244;2022-09-12T10:23:33;22.70;99.90
22813;DHT22;11573;51.334;3.244;2022-09-12T10:26:08;22.80;99.90
22813;DHT22;11573;51.334;3.244;2022-09-12T10:28:39;23.10;99.90
22813;DHT22;11573;51.334;3.244;2022-09-12T10:31:09;23.30;99.90
22813;DHT22;11573;51.334;3.244;2022-09-12T10:33:45;23.20;99.90
22813;DHT22;11573;51.334;3.244;2022-09-12T10:36:19;23.10;99.90
22813;DHT22;11573;51.334;3.244;2022-09-12T10:38:57;23.20;99.90
22813;DHT22;11573;51.334;3.244;2022-09-12T10:41:24;23.40;99.90
22813;DHT22;11573;51.334;3.244;2022-09-12T10:43:52;23.50;99.90
22813;DHT22;11573;51.334;3.244;2022-09-12T10:46:19;23.50;99.90
22813;DHT22;11573;51.334;3.244;2022-09-12T10:48:49;23.60;99.90
22813;DHT22;11573;51.334;3.244;2022-09-12T10:53:56;23.90;99.90
22813;DHT22;11573;51.334;3.244;2022-09-12T10:56:31;23.90;99.90
22813;DHT22;11573;51.334;3.244;2022-09-12T11:08:08;23.60;99.90
22813;DHT22;11573;51.334;3.244;2022-09-12T11:14:01;23.60;99.90
22813;DHT22;11573;51.334;3.244;2022-09-12T11:30:38;24.10;99.90
22813;DHT22;11573;51.334;3.244;2022-09-12T11:35:48;24.20;99.90
22813;DHT22;11573;51.334;3.244;2022-09-12T11:40:57;24.10;99.90
22813;DHT22;11573;51.334;3.244;2022-09-12T11:46:40;24.40;99.90
22813;DHT22;11573;51.334;3.244;2022-09-12T11:52:04;24.70;99.90
22813;DHT22;11573;51.334;3.244;2022-09-12T11:57:42;24.70;99.90
22813;DHT22;11573;51.334;3.244;2022-09-12T12:00:21;24.50;99.90
22813;DHT22;11573;51.334;3.244;2022-09-12T12:03:49;24.60;99.90
22813;DHT22;11573;51.334;3.244;2022-09-12T12:08:25;24.80;99.90
22813;DHT22;11573;51.334;3.244;2022-09-12T12:10:56;25.00;99.90
22813;DHT22;11573;51.334;3.244;2022-09-12T12:19:03;25.70;99.90
22813;DHT22;11573;51.334;3.244;2022-09-12T12:21:46;25.60;99.90
22813;DHT22;11573;51.334;3.244;2022-09-12T12:24:20;25.80;99.90
22813;DHT22;11573;51.334;3.244;2022-09-12T12:27:24;25.80;99.90
22813;DHT22;11573;51.334;3.244;2022-09-12T12:29:51;25.60;99.90
22813;DHT22;11573;51.334;3.244;2022-09-12T12:32:19;25.60;99.90
22813;DHT22;11573;51.334;3.244;2022-09-12T12:34:47;25.60;99.90
22813;DHT22;11573;51.334;3.244;2022-09-12T12:48:14;25.20;99.90
22813;DHT22;11573;51.334;3.244;2022-09-12T12:50:42;25.10;99.90
22813;DHT22;11573;51.334;3.244;2022-09-12T12:55:49;25.30;99.90
22813;DHT22;11573;51.334;3.244;2022-09-12T12:58:37;25.40;99.90
22813;DHT22;11573;51.334;3.244;2022-09-12T13:01:19;25.60;99.90
22813;DHT22;11573;51.334;3.244;2022-09-12T13:03:58;25.70;99.90
22813;DHT22;11573;51.334;3.244;2022-09-12T13:06:41;25.80;99.90
22813;DHT22;11573;51.334;3.244;2022-09-12T13:09:22;25.90;99.90
22813;DHT22;11573;51.334;3.244;2022-09-12T13:12:06;25.90;99.90
22813;DHT22;11573;51.334;3.244;2022-09-12T13:17:24;26.00;99.90
22813;DHT22;11573;51.334;3.244;2022-09-12T13:20:13;26.00;99.90
22813;DHT22;11573;51.334;3.244;2022-09-12T13:22:54;25.80;99.90
22813;DHT22;11573;51.334;3.244;2022-09-12T13:25:29;25.70;99.90
22813;DHT22;11573;51.334;3.244;2022-09-12T13:30:23;25.90;99.90
22813;DHT22;11573;51.334;3.244;2022-09-12T13:32:51;26.00;99.90
22813;DHT22;11573;51.334;3.244;2022-09-12T13:35:31;26.20;99.90
22813;DHT22;11573;51.334;3.244;2022-09-12T13:38:24;26.10;99.90
22813;DHT22;11573;51.334;3.244;2022-09-12T13:41:15;25.80;99.90
22813;DHT22;11573;51.334;3.244;2022-09-12T13:43:45;25.80;99.90
22813;DHT22;11573;51.334;3.244;2022-09-12T13:46:16;25.70;99.90
22813;DHT22;11573;51.334;3.244;2022-09-12T13:48:45;25.70;99.90
22813;DHT22;11573;51.334;3.244;2022-09-12T13:51:21;25.80;99.90
22813;DHT22;11573;51.334;3.244;2022-09-12T13:53:52;25.90;99.90
22813;DHT22;11573;51.334;3.244;2022-09-12T13:56:20;25.90;99.90
22813;DHT22;11573;51.334;3.244;2022-09-12T13:59:01;26.00;99.90
22813;DHT22;11573;51.334;3.244;2022-09-12T14:01:40;26.10;99.90
22813;DHT22;11573;51.334;3.244;2022-09-12T14:04:23;26.10;99.90
22813;DHT22;11573;51.334;3.244;2022-09-12T14:09:44;26.10;99.90
22813;DHT22;11573;51.334;3.244;2022-09-12T14:12:28;26.20;99.90
22813;DHT22;11573;51.334;3.244;2022-09-12T14:14:57;26.30;99.90
22813;DHT22;11573;51.334;3.244;2022-09-12T14:17:27;26.20;99.90
22813;DHT22;11573;51.334;3.244;2022-09-12T14:20:00;26.40;99.90
22813;DHT22;11573;51.334;3.244;2022-09-12T14:22:29;26.60;99.90
22813;DHT22;11573;51.334;3.244;2022-09-12T14:24:57;26.40;99.90
22813;DHT22;11573;51.334;3.244;2022-09-12T14:27:27;26.10;99.90
22813;DHT22;11573;51.334;3.244;2022-09-12T14:30:13;26.10;99.90
22813;DHT22;11573;51.334;3.244;2022-09-12T14:35:40;26.60;99.90
22813;DHT22;11573;51.334;3.244;2022-09-12T14:40:47;26.80;99.90
22813;DHT22;11573;51.334;3.244;2022-09-12T14:43:27;26.50;99.90
22813;DHT22;11573;51.334;3.244;2022-09-12T14:46:04;26.10;99.90
22813;DHT22;11573;51.334;3.244;2022-09-12T14:48:42;26.20;99.90
22813;DHT22;11573;51.334;3.244;2022-09-12T14:51:21;26.40;99.90
22813;DHT22;11573;51.334;3.244;2022-09-12T14:53:49;26.40;99.90
22813;DHT22;11573;51.334;3.244;2022-09-12T14:56:16;26.70;99.90
22813;DHT22;11573;51.334;3.244;2022-09-12T14:58:46;27.00;99.90
22813;DHT22;11573;51.334;3.244;2022-09-12T15:06:32;26.40;99.90
22813;DHT22;11573;51.334;3.244;2022-09-12T15:09:06;26.10;99.90
22813;DHT22;11573;51.334;3.244;2022-09-12T15:11:34;25.80;99.90
22813;DHT22;11573;51.334;3.244;2022-09-12T15:14:14;25.90;99.90
22813;DHT22;11573;51.334;3.244;2022-09-12T15:16:41;26.30;99.90
22813;DHT22;11573;51.334;3.244;2022-09-12T15:19:08;26.50;99.90
22813;DHT22;11573;51.334;3.244;2022-09-12T15:21:35;26.70;99.90
22813;DHT22;11573;51.334;3.244;2022-09-12T15:24:02;26.80;99.90
22813;DHT22;11573;51.334;3.244;2022-09-12T15:26:29;26.80;99.90
22813;DHT22;11573;51.334;3.244;2022-09-12T15:28:57;27.00;99.90
22813;DHT22;11573;51.334;3.244;2022-09-12T15:31:25;26.60;99.90
22813;DHT22;11573;51.334;3.244;2022-09-12T15:33:54;27.00;99.90
22813;DHT22;11573;51.334;3.244;2022-09-12T15:36:22;27.40;99.90
22813;DHT22;11573;51.334;3.244;2022-09-12T15:38:51;27.90;99.90
22813;DHT22;11573;51.334;3.244;2022-09-12T15:43:49;27.90;99.90
22813;DHT22;11573;51.334;3.244;2022-09-12T15:46:17;27.90;99.90
22813;DHT22;11573;51.334;3.244;2022-09-12T15:48:45;28.10;99.90
22813;DHT22;11573;51.334;3.244;2022-09-12T15:51:13;28.00;99.90
22813;DHT22;11573;51.334;3.244;2022-09-12T15:53:42;27.80;99.90
22813;DHT22;11573;51.334;3.244;2022-09-12T15:56:09;27.40;99.90
22813;DHT22;11573;51.334;3.244;2022-09-12T15:58:36;27.30;99.90
22813;DHT22;11573;51.334;3.244;2022-09-12T16:01:23;27.00;99.90
22813;DHT22;11573;51.334;3.244;2022-09-12T16:03:50;26.90;99.90
22813;DHT22;11573;51.334;3.244;2022-09-12T16:06:17;26.70;99.90
22813;DHT22;11573;51.334;3.244;2022-09-12T16:08:43;26.40;99.90
22813;DHT22;11573;51.334;3.244;2022-09-12T16:11:20;26.40;99.90
22813;DHT22;11573;51.334;3.244;2022-09-12T16:13:47;26.40;99.90
22813;DHT22;11573;51.334;3.244;2022-09-12T16:16:14;26.30;99.90
22813;DHT22;11573;51.334;3.244;2022-09-12T16:18:41;26.10;99.90
22813;DHT22;11573;51.334;3.244;2022-09-12T16:21:08;25.90;99.90
22813;DHT22;11573;51.334;3.244;2022-09-12T16:23:44;25.80;99.90
22813;DHT22;11573;51.334;3.244;2022-09-12T16:26:12;25.70;99.90
22813;DHT22;11573;51.334;3.244;2022-09-12T16:28:39;25.70;99.90
22813;DHT22;11573;51.334;3.244;2022-09-12T16:31:07;25.60;99.90
22813;DHT22;11573;51.334;3.244;2022-09-12T16:33:36;25.60;99.90
22813;DHT22;11573;51.334;3.244;2022-09-12T16:38:32;25.50;99.90
22813;DHT22;11573;51.334;3.244;2022-09-12T16:41:05;25.50;99.90
22813;DHT22;11573;51.334;3.244;2022-09-12T16:43:33;25.50;99.90
22813;DHT22;11573;51.334;3.244;2022-09-12T16:48:31;25.30;99.90
22813;DHT22;11573;51.334;3.244;2022-09-12T16:51:00;25.30;99.90
22813;DHT22;11573;51.334;3.244;2022-09-12T16:53:29;25.20;99.90
22813;DHT22;11573;51.334;3.244;2022-09-12T16:55:56;24.90;99.90
22813;DHT22;11573;51.334;3.244;2022-09-12T16:58:24;24.70;99.90
22813;DHT22;11573;51.334;3.244;2022-09-12T17:01:06;24.60;99.90
22813;DHT22;11573;51.334;3.244;2022-09-12T17:03:34;24.40;99.90
22813;DHT22;11573;51.334;3.244;2022-09-12T17:06:12;24.30;99.90
22813;DHT22;11573;51.334;3.244;2022-09-12T17:08:42;24.20;99.90
22813;DHT22;11573;51.334;3.244;2022-09-12T17:11:12;24.00;99.90
22813;DHT22;11573;51.334;3.244;2022-09-12T17:13:40;23.90;99.90
22813;DHT22;11573;51.334;3.244;2022-09-12T17:16:27;23.80;99.90
22813;DHT22;11573;51.334;3.244;2022-09-12T17:18:54;23.70;99.90
22813;DHT22;11573;51.334;3.244;2022-09-12T17:21:24;23.60;99.90
22813;DHT22;11573;51.334;3.244;2022-09-12T17:23:51;23.50;99.90
22813;DHT22;11573;51.334;3.244;2022-09-12T17:26:18;23.40;99.90
22813;DHT22;11573;51.334;3.244;2022-09-12T17:28:46;23.30;99.90
22813;DHT22;11573;51.334;3.244;2022-09-12T17:31:14;23.30;99.90
22813;DHT22;11573;51.334;3.244;2022-09-12T17:33:42;23.20;99.90
22813;DHT22;11573;51.334;3.244;2022-09-12T17:36:14;23.10;99.90
22813;DHT22;11573;51.334;3.244;2022-09-12T17:38:44;23.00;99.90
22813;DHT22;11573;51.334;3.244;2022-09-12T17:41:17;22.90;99.90
22813;DHT22;11573;51.334;3.244;2022-09-12T17:43:49;22.80;99.90
22813;DHT22;11573;51.334;3.244;2022-09-12T17:46:21;22.70;99.90
22813;DHT22;11573;51.334;3.244;2022-09-12T17:48:54;22.60;99.90
22813;DHT22;11573;51.334;3.244;2022-09-12T17:51:23;22.50;99.90
22813;DHT22;11573;51.334;3.244;2022-09-12T17:53:58;22.30;99.90
22813;DHT22;11573;51.334;3.244;2022-09-12T17:56:26;22.20;99.90
22813;DHT22;11573;51.334;3.244;2022-09-12T17:58:56;22.00;99.90
22813;DHT22;11573;51.334;3.244;2022-09-12T18:01:23;21.80;99.90
22813;DHT22;11573;51.334;3.244;2022-09-12T18:04:10;21.70;99.90
22813;DHT22;11573;51.334;3.244;2022-09-12T18:06:37;21.60;99.90
22813;DHT22;11573;51.334;3.244;2022-09-12T18:09:08;21.50;99.90
22813;DHT22;11573;51.334;3.244;2022-09-12T18:11:35;21.40;99.90
22813;DHT22;11573;51.334;3.244;2022-09-12T18:14:02;21.30;99.90
22813;DHT22;11573;51.334;3.244;2022-09-12T18:16:29;21.20;99.90
22813;DHT22;11573;51.334;3.244;2022-09-12T18:18:58;21.00;99.90
22813;DHT22;11573;51.334;3.244;2022-09-12T18:21:27;20.90;99.90
22813;DHT22;11573;51.334;3.244;2022-09-12T18:23:55;20.80;99.90
22813;DHT22;11573;51.334;3.244;2022-09-12T18:26:26;20.70;99.90
22813;DHT22;11573;51.334;3.244;2022-09-12T18:28:54;20.60;99.90
22813;DHT22;11573;51.334;3.244;2022-09-12T18:31:24;20.50;99.90
22813;DHT22;11573;51.334;3.244;2022-09-12T18:33:52;20.50;99.90
22813;DHT22;11573;51.334;3.244;2022-09-12T18:36:20;20.40;99.90
22813;DHT22;11573;51.334;3.244;2022-09-12T18:38:47;20.30;99.90
22813;DHT22;11573;51.334;3.244;2022-09-12T18:41:20;20.20;99.90
22813;DHT22;11573;51.334;3.244;2022-09-12T18:43:48;20.20;99.90
22813;DHT22;11573;51.334;3.244;2022-09-12T18:46:17;20.20;99.90